4OK2 weather

CLOSED Candy Lake Estate Airport
Avant, Oklahoma, United States

Public forecast

Using degrees Fahrenheit for public forecast. Weather courtesy of forecast.io.

Closest aviation weather report (METAR) to Candy Lake Estate Airport

Closest report is Bartlesville Municipal Airport, 16.3 nm (30.2 km) N. Retrieved 2019/10/19 07:53 UTC (14 minutes ago):

KBVO 190753Z AUTO 00000KT 10SM -RA BKN100 OVC110 13/11 A2975 RMK AO2 LTG DSNT N RAB40 SLP067 P0001 T01280111

Closest aviation forecast (TAF) to Candy Lake Estate Airport

Closest forecast is Bartlesville Municipal Airport, 16.3 nm (30.2 km) N. Retrieved 2019/10/19 06:22 UTC (2 hours ago):

TAF KBVO 190520Z 1906/2006 17009KT P6SM SCT100 FM190800 18005KT P6SM -SHRA BKN100 TEMPO 1908/1912 6SM -TSRA BKN050CB FM191200 25006KT P6SM BKN100 FM191700 36008KT P6SM SCT050 FM200200 00000KT P6SM SKC